Terminal Aerodrome Forecast
Issued by NWS

Home | Current Version | Previous Version | Text Only | Print | Product List | Glossary On
Versions: 1 2 3 4 5 6 7 8 9 10 11 12 13 14 15 16 17 18
000
FTUS45 KABQ 022300
TAFROW
TAF
KROW 022328Z 0300/0324 18015KT P6SM VCSH BKN020 BKN120
     FM030300 19013KT P6SM VCSH BKN025 BKN080
     FM031600 23015KT P6SM SCT030 SCT120=

USA.gov is the U.S. government's official web portal to all federal, state and local government web resources and services.